sensor_id;sensor_type;location;lat;lon;timestamp;pressure;altitude;pressure_sealevel;temperature;humidity
72308;BME280;60257;42.638;23.376;2023-02-01T00:01:38;94675.03;;;0.77;69.04
72308;BME280;60257;42.638;23.376;2023-02-01T00:04:03;94685.09;;;0.66;69.35
72308;BME280;60257;42.638;23.376;2023-02-01T00:06:29;94663.66;;;0.51;69.74
72308;BME280;60257;42.638;23.376;2023-02-01T00:08:55;94674.19;;;0.53;69.84
72308;BME280;60257;42.638;23.376;2023-02-01T00:11:22;94679.78;;;0.61;69.45
72308;BME280;60257;42.638;23.376;2023-02-01T00:13:48;94654.50;;;0.47;69.72
72308;BME280;60257;42.638;23.376;2023-02-01T00:16:20;94667.16;;;0.81;68.30
72308;BME280;60257;42.638;23.376;2023-02-01T00:18:47;94663.84;;;0.60;68.92
72308;BME280;60257;42.638;23.376;2023-02-01T00:21:14;94666.69;;;0.73;68.65
72308;BME280;60257;42.638;23.376;2023-02-01T00:23:40;94681.34;;;0.62;69.06
72308;BME280;60257;42.638;23.376;2023-02-01T00:26:09;94670.06;;;0.60;68.39
72308;BME280;60257;42.638;23.376;2023-02-01T00:28:38;94664.69;;;0.55;69.19
72308;BME280;60257;42.638;23.376;2023-02-01T00:31:03;94654.50;;;0.47;69.01
72308;BME280;60257;42.638;23.376;2023-02-01T00:33:30;94662.06;;;0.50;68.84
72308;BME280;60257;42.638;23.376;2023-02-01T00:35:57;94649.69;;;0.44;69.00
72308;BME280;60257;42.638;23.376;2023-02-01T00:38:24;94667.09;;;0.57;68.88
72308;BME280;60257;42.638;23.376;2023-02-01T00:40:50;94652.13;;;0.46;68.98
72308;BME280;60257;42.638;23.376;2023-02-01T00:43:15;94652.41;;;0.44;69.23
72308;BME280;60257;42.638;23.376;2023-02-01T00:45:41;94658.06;;;0.43;68.61
72308;BME280;60257;42.638;23.376;2023-02-01T00:48:06;94660.97;;;0.51;67.20
72308;BME280;60257;42.638;23.376;2023-02-01T00:50:32;94645.66;;;0.42;67.71
72308;BME280;60257;42.638;23.376;2023-02-01T00:52:57;94634.66;;;0.38;67.47
72308;BME280;60257;42.638;23.376;2023-02-01T00:55:22;94647.94;;;0.29;67.89
72308;BME280;60257;42.638;23.376;2023-02-01T00:57:48;94633.00;;;0.08;67.72
72308;BME280;60257;42.638;23.376;2023-02-01T01:00:14;94640.13;;;0.28;67.18
72308;BME280;60257;42.638;23.376;2023-02-01T01:02:39;94638.41;;;0.08;67.22
72308;BME280;60257;42.638;23.376;2023-02-01T01:05:06;94644.00;;;0.17;66.78
72308;BME280;60257;42.638;23.376;2023-02-01T01:07:31;94641.50;;;-0.09;67.59
72308;BME280;60257;42.638;23.376;2023-02-01T01:09:57;94631.28;;;-0.12;67.68
72308;BME280;60257;42.638;23.376;2023-02-01T01:12:22;94641.69;;;0.05;67.00
72308;BME280;60257;42.638;23.376;2023-02-01T01:14:48;94641.09;;;0.08;67.09
72308;BME280;60257;42.638;23.376;2023-02-01T01:17:13;94637.19;;;0.24;65.74
72308;BME280;60257;42.638;23.376;2023-02-01T01:19:39;94637.78;;;0.21;65.90
72308;BME280;60257;42.638;23.376;2023-02-01T01:22:04;94640.59;;;0.35;65.75
72308;BME280;60257;42.638;23.376;2023-02-01T01:24:29;94618.09;;;0.21;64.50
72308;BME280;60257;42.638;23.376;2023-02-01T01:26:55;94638.19;;;0.33;65.07
72308;BME280;60257;42.638;23.376;2023-02-01T01:29:21;94638.44;;;0.37;64.69
72308;BME280;60257;42.638;23.376;2023-02-01T01:31:46;94641.75;;;0.29;65.25
72308;BME280;60257;42.638;23.376;2023-02-01T01:34:12;94625.59;;;0.24;64.98
72308;BME280;60257;42.638;23.376;2023-02-01T01:36:37;94648.66;;;0.40;63.85
72308;BME280;60257;42.638;23.376;2023-02-01T01:39:03;94648.84;;;0.49;63.37
72308;BME280;60257;42.638;23.376;2023-02-01T01:41:31;94650.78;;;0.43;63.60
72308;BME280;60257;42.638;23.376;2023-02-01T01:44:01;94617.47;;;0.29;62.79
72308;BME280;60257;42.638;23.376;2023-02-01T01:46:29;94655.56;;;0.51;62.57
72308;BME280;60257;42.638;23.376;2023-02-01T01:49:05;94649.69;;;0.44;62.14
72308;BME280;60257;42.638;23.376;2023-02-01T01:51:37;94648.22;;;0.28;62.65
72308;BME280;60257;42.638;23.376;2023-02-01T01:54:09;94663.81;;;0.36;62.72
72308;BME280;60257;42.638;23.376;2023-02-01T01:56:37;94654.44;;;0.23;62.69
72308;BME280;60257;42.638;23.376;2023-02-01T01:59:04;94612.06;;;0.00;63.07
72308;BME280;60257;42.638;23.376;2023-02-01T02:01:31;94651.75;;;0.23;62.91
72308;BME280;60257;42.638;23.376;2023-02-01T02:03:57;94634.47;;;-0.05;63.57
72308;BME280;60257;42.638;23.376;2023-02-01T02:06:51;94647.59;;;0.07;63.54
72308;BME280;60257;42.638;23.376;2023-02-01T02:09:20;94645.28;;;-0.10;64.09
72308;BME280;60257;42.638;23.376;2023-02-01T02:11:46;94650.53;;;-0.23;64.23
72308;BME280;60257;42.638;23.376;2023-02-01T02:14:13;94648.09;;;-0.25;64.61
72308;BME280;60257;42.638;23.376;2023-02-01T02:41:19;94628.47;;;-0.80;66.18
72308;BME280;60257;42.638;23.376;2023-02-01T02:47:13;94634.09;;;-0.76;66.33
72308;BME280;60257;42.638;23.376;2023-02-01T02:52:53;94633.66;;;-0.39;64.93
72308;BME280;60257;42.638;23.376;2023-02-01T02:55:41;94611.34;;;-0.50;64.60
72308;BME280;60257;42.638;23.376;2023-02-01T02:58:10;94610.59;;;-0.16;63.62
72308;BME280;60257;42.638;23.376;2023-02-01T03:00:56;94624.66;;;-0.29;64.22
72308;BME280;60257;42.638;23.376;2023-02-01T03:03:41;94626.22;;;-0.18;63.42
72308;BME280;60257;42.638;23.376;2023-02-01T03:06:26;94637.28;;;-0.20;62.98
72308;BME280;60257;42.638;23.376;2023-02-01T03:08:55;94639.97;;;-0.20;63.79
72308;BME280;60257;42.638;23.376;2023-02-01T03:11:23;94645.13;;;-0.23;63.53
72308;BME280;60257;42.638;23.376;2023-02-01T03:13:57;94619.53;;;-0.26;62.91
72308;BME280;60257;42.638;23.376;2023-02-01T03:16:33;94636.03;;;0.02;61.49
72308;BME280;60257;42.638;23.376;2023-02-01T03:24:07;94662.66;;;0.08;61.43
72308;BME280;60257;42.638;23.376;2023-02-01T03:26:38;94673.72;;;0.12;61.53
72308;BME280;60257;42.638;23.376;2023-02-01T03:29:14;94629.75;;;0.11;60.44
72308;BME280;60257;42.638;23.376;2023-02-01T03:31:41;94660.59;;;0.00;61.41
72308;BME280;60257;42.638;23.376;2023-02-01T03:34:07;94665.66;;;0.07;61.69
72308;BME280;60257;42.638;23.376;2023-02-01T03:36:42;94670.03;;;-0.03;62.12
72308;BME280;60257;42.638;23.376;2023-02-01T03:39:31;94675.97;;;-0.06;62.67
72308;BME280;60257;42.638;23.376;2023-02-01T03:42:19;94667.06;;;-0.01;62.49
72308;BME280;60257;42.638;23.376;2023-02-01T03:45:07;94665.47;;;-0.02;62.23
72308;BME280;60257;42.638;23.376;2023-02-01T03:47:40;94666.00;;;0.00;62.10
72308;BME280;60257;42.638;23.376;2023-02-01T03:50:14;94632.09;;;-0.11;62.49
72308;BME280;60257;42.638;23.376;2023-02-01T03:52:49;94658.19;;;-0.02;62.30
72308;BME280;60257;42.638;23.376;2023-02-01T03:55:19;94667.28;;;0.03;62.43
72308;BME280;60257;42.638;23.376;2023-02-01T03:57:52;94665.13;;;0.05;62.08
72308;BME280;60257;42.638;23.376;2023-02-01T04:00:23;94659.81;;;-0.06;63.03
72308;BME280;60257;42.638;23.376;2023-02-01T04:02:49;94663.91;;;-0.13;63.33
72308;BME280;60257;42.638;23.376;2023-02-01T04:05:15;94661.16;;;-0.03;62.80
72308;BME280;60257;42.638;23.376;2023-02-01T04:07:41;94673.88;;;-0.09;63.06
72308;BME280;60257;42.638;23.376;2023-02-01T04:10:07;94666.84;;;-0.10;62.79
72308;BME280;60257;42.638;23.376;2023-02-01T04:12:33;94660.88;;;-0.02;62.81
72308;BME280;60257;42.638;23.376;2023-02-01T04:14:58;94638.38;;;0.13;62.23
72308;BME280;60257;42.638;23.376;2023-02-01T04:17:24;94657.44;;;0.22;62.54
72308;BME280;60257;42.638;23.376;2023-02-01T04:19:49;94651.06;;;0.13;62.63
72308;BME280;60257;42.638;23.376;2023-02-01T04:22:15;94671.63;;;0.32;62.13
72308;BME280;60257;42.638;23.376;2023-02-01T04:24:40;94661.38;;;0.34;62.35
72308;BME280;60257;42.638;23.376;2023-02-01T04:27:05;94657.66;;;0.30;63.09
72308;BME280;60257;42.638;23.376;2023-02-01T04:29:31;94667.66;;;0.25;63.49
72308;BME280;60257;42.638;23.376;2023-02-01T04:31:56;94666.63;;;0.21;63.83
72308;BME280;60257;42.638;23.376;2023-02-01T04:34:22;94668.59;;;0.44;63.61
72308;BME280;60257;42.638;23.376;2023-02-01T04:36:51;94676.16;;;0.42;63.39
72308;BME280;60257;42.638;23.376;2023-02-01T04:39:16;94668.91;;;0.37;63.52
72308;BME280;60257;42.638;23.376;2023-02-01T04:41:42;94658.22;;;0.27;63.85
72308;BME280;60257;42.638;23.376;2023-02-01T04:44:13;94665.09;;;0.44;64.51
72308;BME280;60257;42.638;23.376;2023-02-01T04:46:39;94655.75;;;0.31;64.52
72308;BME280;60257;42.638;23.376;2023-02-01T04:49:05;94669.84;;;0.23;64.83
72308;BME280;60257;42.638;23.376;2023-02-01T04:51:30;94673.03;;;0.30;64.83
72308;BME280;60257;42.638;23.376;2023-02-01T04:53:55;94674.34;;;0.32;65.33
72308;BME280;60257;42.638;23.376;2023-02-01T04:56:21;94656.13;;;0.19;65.62
72308;BME280;60257;42.638;23.376;2023-02-01T04:58:47;94673.78;;;0.35;65.21
72308;BME280;60257;42.638;23.376;2023-02-01T05:01:12;94672.41;;;0.38;65.28
72308;BME280;60257;42.638;23.376;2023-02-01T05:03:37;94682.69;;;0.36;65.56
72308;BME280;60257;42.638;23.376;2023-02-01T05:06:03;94688.03;;;0.41;65.77
72308;BME280;60257;42.638;23.376;2023-02-01T05:08:32;94693.75;;;0.34;66.49
72308;BME280;60257;42.638;23.376;2023-02-01T05:10:58;94689.44;;;0.33;66.27
72308;BME280;60257;42.638;23.376;2023-02-01T05:13:24;94697.31;;;0.30;66.84
72308;BME280;60257;42.638;23.376;2023-02-01T05:16:08;94703.13;;;0.42;66.71
72308;BME280;60257;42.638;23.376;2023-02-01T05:18:34;94688.91;;;0.31;66.66
72308;BME280;60257;42.638;23.376;2023-02-01T05:20:59;94694.56;;;0.35;66.66
72308;BME280;60257;42.638;23.376;2023-02-01T05:23:25;94700.38;;;0.47;66.27
72308;BME280;60257;42.638;23.376;2023-02-01T05:25:51;94709.25;;;0.53;66.46
72308;BME280;60257;42.638;23.376;2023-02-01T05:28:16;94699.63;;;0.70;65.69
72308;BME280;60257;42.638;23.376;2023-02-01T05:30:42;94701.03;;;0.63;66.33
72308;BME280;60257;42.638;23.376;2023-02-01T05:33:07;94696.47;;;0.63;66.29
72308;BME280;60257;42.638;23.376;2023-02-01T05:35:33;94712.09;;;0.66;66.34
72308;BME280;60257;42.638;23.376;2023-02-01T05:37:58;94686.06;;;0.47;66.00
72308;BME280;60257;42.638;23.376;2023-02-01T05:40:23;94699.34;;;0.72;65.96
72308;BME280;60257;42.638;23.376;2023-02-01T05:42:49;94694.63;;;0.59;66.37
72308;BME280;60257;42.638;23.376;2023-02-01T05:45:14;94691.53;;;0.70;66.10
72308;BME280;60257;42.638;23.376;2023-02-01T05:47:40;94688.84;;;0.70;65.96
72308;BME280;60257;42.638;23.376;2023-02-01T05:50:06;94711.03;;;0.62;66.57
72308;BME280;60257;42.638;23.376;2023-02-01T05:52:32;94693.06;;;0.53;66.32
72308;BME280;60257;42.638;23.376;2023-02-01T05:54:58;94700.09;;;0.77;65.85
72308;BME280;60257;42.638;23.376;2023-02-01T05:57:23;94695.56;;;0.73;65.75
72308;BME280;60257;42.638;23.376;2023-02-01T05:59:49;94693.63;;;0.78;65.26
72308;BME280;60257;42.638;23.376;2023-02-01T06:02:15;94696.63;;;1.01;64.58
72308;BME280;60257;42.638;23.376;2023-02-01T06:04:41;94686.69;;;0.96;64.46
72308;BME280;60257;42.638;23.376;2023-02-01T06:07:08;94700.59;;;1.08;63.83
72308;BME280;60257;42.638;23.376;2023-02-01T06:09:36;94691.63;;;0.89;64.64
72308;BME280;60257;42.638;23.376;2023-02-01T06:12:02;94714.50;;;0.97;64.66
72308;BME280;60257;42.638;23.376;2023-02-01T06:14:28;94698.22;;;1.02;63.12
72308;BME280;60257;42.638;23.376;2023-02-01T06:16:54;94712.25;;;1.04;63.54
72308;BME280;60257;42.638;23.376;2023-02-01T06:19:20;94712.59;;;0.97;63.72
72308;BME280;60257;42.638;23.376;2023-02-01T06:21:46;94720.09;;;1.05;63.65
72308;BME280;60257;42.638;23.376;2023-02-01T06:24:12;94680.38;;;0.82;63.47
72308;BME280;60257;42.638;23.376;2023-02-01T06:26:38;94698.06;;;0.93;63.36
72308;BME280;60257;42.638;23.376;2023-02-01T06:29:05;94700.19;;;0.96;62.93
72308;BME280;60257;42.638;23.376;2023-02-01T06:31:32;94719.69;;;1.17;62.81
72308;BME280;60257;42.638;23.376;2023-02-01T06:33:58;94720.44;;;1.23;62.23
72308;BME280;60257;42.638;23.376;2023-02-01T06:36:23;94708.25;;;1.25;61.75
72308;BME280;60257;42.638;23.376;2023-02-01T06:38:49;94708.38;;;1.39;61.59
72308;BME280;60257;42.638;23.376;2023-02-01T06:41:14;94712.38;;;1.41;60.67
72308;BME280;60257;42.638;23.376;2023-02-01T06:43:40;94692.03;;;1.25;61.50
72308;BME280;60257;42.638;23.376;2023-02-01T06:46:11;94718.06;;;1.40;61.14
72308;BME280;60257;42.638;23.376;2023-02-01T06:48:37;94708.19;;;1.54;60.14
72308;BME280;60257;42.638;23.376;2023-02-01T06:51:03;94704.97;;;1.52;59.95
72308;BME280;60257;42.638;23.376;2023-02-01T06:53:30;94732.16;;;1.61;60.08
72308;BME280;60257;42.638;23.376;2023-02-01T06:56:01;94723.78;;;1.62;59.83
72308;BME280;60257;42.638;23.376;2023-02-01T06:58:31;94732.56;;;1.49;60.45
72308;BME280;60257;42.638;23.376;2023-02-01T07:00:57;94741.06;;;1.61;59.30
72308;BME280;60257;42.638;23.376;2023-02-01T07:03:23;94698.31;;;1.63;59.18
72308;BME280;60257;42.638;23.376;2023-02-01T07:05:49;94740.63;;;1.54;59.72
72308;BME280;60257;42.638;23.376;2023-02-01T07:08:14;94742.97;;;1.61;60.06
72308;BME280;60257;42.638;23.376;2023-02-01T07:10:40;94760.00;;;1.61;59.47
72308;BME280;60257;42.638;23.376;2023-02-01T07:13:05;94759.41;;;1.64;60.12
72308;BME280;60257;42.638;23.376;2023-02-01T07:15:31;94758.13;;;1.57;59.75
72308;BME280;60257;42.638;23.376;2023-02-01T07:17:56;94728.41;;;1.33;59.35
72308;BME280;60257;42.638;23.376;2023-02-01T07:20:22;94751.94;;;1.56;59.64
72308;BME280;60257;42.638;23.376;2023-02-01T07:22:48;94762.34;;;1.68;59.29
72308;BME280;60257;42.638;23.376;2023-02-01T07:25:14;94765.34;;;1.66;59.36
72308;BME280;60257;42.638;23.376;2023-02-01T07:27:39;94764.00;;;1.64;59.60
72308;BME280;60257;42.638;23.376;2023-02-01T07:30:06;94766.13;;;1.67;59.44
72308;BME280;60257;42.638;23.376;2023-02-01T07:32:32;94756.13;;;1.67;59.57
72308;BME280;60257;42.638;23.376;2023-02-01T07:34:58;94750.81;;;1.62;59.10
72308;BME280;60257;42.638;23.376;2023-02-01T07:37:23;94776.47;;;1.83;58.86
72308;BME280;60257;42.638;23.376;2023-02-01T07:39:50;94764.22;;;1.91;58.04
72308;BME280;60257;42.638;23.376;2023-02-01T07:42:16;94782.63;;;1.89;58.52
72308;BME280;60257;42.638;23.376;2023-02-01T07:44:41;94762.09;;;1.88;58.49
72308;BME280;60257;42.638;23.376;2023-02-01T07:47:06;94769.03;;;1.94;58.63
72308;BME280;60257;42.638;23.376;2023-02-01T07:49:32;94773.50;;;2.04;57.69
72308;BME280;60257;42.638;23.376;2023-02-01T07:51:57;94786.22;;;2.03;58.14
72308;BME280;60257;42.638;23.376;2023-02-01T07:54:23;94778.25;;;1.93;58.09
72308;BME280;60257;42.638;23.376;2023-02-01T07:56:48;94785.56;;;2.11;57.56
72308;BME280;60257;42.638;23.376;2023-02-01T07:59:14;94787.97;;;1.94;58.29
72308;BME280;60257;42.638;23.376;2023-02-01T08:01:41;94792.03;;;2.15;57.66
72308;BME280;60257;42.638;23.376;2023-02-01T08:04:09;94788.06;;;2.26;57.36
72308;BME280;60257;42.638;23.376;2023-02-01T08:06:35;94800.50;;;2.27;57.16
72308;BME280;60257;42.638;23.376;2023-02-01T08:09:02;94789.31;;;2.15;56.95
72308;BME280;60257;42.638;23.376;2023-02-01T08:11:29;94800.75;;;2.31;56.83
72308;BME280;60257;42.638;23.376;2023-02-01T08:13:54;94795.50;;;2.40;56.97
72308;BME280;60257;42.638;23.376;2023-02-01T08:16:20;94786.47;;;2.44;56.74
72308;BME280;60257;42.638;23.376;2023-02-01T08:18:46;94794.91;;;2.61;56.05
72308;BME280;60257;42.638;23.376;2023-02-01T08:21:18;94790.19;;;2.67;55.14
72308;BME280;60257;42.638;23.376;2023-02-01T08:23:44;94801.97;;;2.76;55.27
72308;BME280;60257;42.638;23.376;2023-02-01T08:26:18;94788.00;;;2.69;55.28
72308;BME280;60257;42.638;23.376;2023-02-01T08:28:48;94782.94;;;2.81;55.02
72308;BME280;60257;42.638;23.376;2023-02-01T08:31:16;94778.19;;;2.73;55.20
72308;BME280;60257;42.638;23.376;2023-02-01T08:33:43;94770.97;;;2.68;54.85
72308;BME280;60257;42.638;23.376;2023-02-01T08:36:10;94784.84;;;2.81;54.26
72308;BME280;60257;42.638;23.376;2023-02-01T08:38:38;94806.44;;;2.86;54.24
72308;BME280;60257;42.638;23.376;2023-02-01T08:41:12;94806.47;;;2.99;54.34
72308;BME280;60257;42.638;23.376;2023-02-01T08:43:38;94794.03;;;2.98;54.13
72308;BME280;60257;42.638;23.376;2023-02-01T08:46:04;94779.69;;;2.98;54.33
72308;BME280;60257;42.638;23.376;2023-02-01T08:48:30;94799.88;;;3.05;53.94
72308;BME280;60257;42.638;23.376;2023-02-01T08:50:56;94797.03;;;2.97;53.74
72308;BME280;60257;42.638;23.376;2023-02-01T08:53:22;94776.69;;;3.59;53.90
72308;BME280;60257;42.638;23.376;2023-02-01T08:55:48;94793.50;;;3.29;52.63
72308;BME280;60257;42.638;23.376;2023-02-01T08:58:13;94790.97;;;3.19;52.92
72308;BME280;60257;42.638;23.376;2023-02-01T09:00:40;94777.25;;;3.29;53.30
72308;BME280;60257;42.638;23.376;2023-02-01T09:03:05;94778.28;;;3.46;52.94
72308;BME280;60257;42.638;23.376;2023-02-01T09:05:31;94781.31;;;3.59;52.34
72308;BME280;60257;42.638;23.376;2023-02-01T09:07:56;94783.53;;;3.70;52.81
72308;BME280;60257;42.638;23.376;2023-02-01T09:10:22;94773.78;;;3.83;50.93
72308;BME280;60257;42.638;23.376;2023-02-01T09:12:48;94778.91;;;3.71;51.79
72308;BME280;60257;42.638;23.376;2023-02-01T09:15:13;94802.13;;;3.77;52.11
72308;BME280;60257;42.638;23.376;2023-02-01T09:17:39;94792.66;;;3.61;51.99
72308;BME280;60257;42.638;23.376;2023-02-01T09:20:07;94780.91;;;3.65;51.77
72308;BME280;60257;42.638;23.376;2023-02-01T09:22:32;94793.25;;;3.58;52.62
72308;BME280;60257;42.638;23.376;2023-02-01T09:24:58;94799.06;;;3.65;52.01
72308;BME280;60257;42.638;23.376;2023-02-01T09:27:23;94786.53;;;3.69;52.42
72308;BME280;60257;42.638;23.376;2023-02-01T09:29:49;94803.50;;;4.15;58.08
72308;BME280;60257;42.638;23.376;2023-02-01T09:32:19;94780.69;;;4.03;51.29
72308;BME280;60257;42.638;23.376;2023-02-01T09:34:44;94795.28;;;4.07;51.12
72308;BME280;60257;42.638;23.376;2023-02-01T09:37:10;94785.22;;;4.07;51.43
72308;BME280;60257;42.638;23.376;2023-02-01T09:39:35;94781.19;;;4.05;51.50
72308;BME280;60257;42.638;23.376;2023-02-01T09:47:12;94783.44;;;4.52;49.63
72308;BME280;60257;42.638;23.376;2023-02-01T09:49:45;94769.91;;;4.39;49.94
72308;BME280;60257;42.638;23.376;2023-02-01T09:52:15;94779.09;;;4.51;49.62
72308;BME280;60257;42.638;23.376;2023-02-01T09:54:47;94758.66;;;4.32;49.80
72308;BME280;60257;42.638;23.376;2023-02-01T09:57:39;94765.22;;;4.53;50.42
72308;BME280;60257;42.638;23.376;2023-02-01T10:00:14;94755.00;;;4.72;49.73
72308;BME280;60257;42.638;23.376;2023-02-01T10:02:42;94759.16;;;4.92;48.97
72308;BME280;60257;42.638;23.376;2023-02-01T10:05:12;94742.91;;;5.00;48.26
72308;BME280;60257;42.638;23.376;2023-02-01T10:07:46;94753.56;;;4.97;48.12
72308;BME280;60257;42.638;23.376;2023-02-01T10:10:34;94735.00;;;4.90;48.22
72308;BME280;60257;42.638;23.376;2023-02-01T10:23:53;94749.59;;;4.58;48.75
72308;BME280;60257;42.638;23.376;2023-02-01T10:26:25;94724.41;;;4.44;49.36
72308;BME280;60257;42.638;23.376;2023-02-01T10:28:53;94717.50;;;4.38;49.39
72308;BME280;60257;42.638;23.376;2023-02-01T10:31:23;94723.81;;;4.47;49.31
72308;BME280;60257;42.638;23.376;2023-02-01T10:33:55;94718.63;;;4.59;49.06
72308;BME280;60257;42.638;23.376;2023-02-01T10:36:29;94710.69;;;4.27;49.12
72308;BME280;60257;42.638;23.376;2023-02-01T10:38:57;94709.44;;;4.47;49.93
72308;BME280;60257;42.638;23.376;2023-02-01T10:41:35;94719.63;;;4.41;48.92
72308;BME280;60257;42.638;23.376;2023-02-01T10:44:06;94705.97;;;4.19;48.84
72308;BME280;60257;42.638;23.376;2023-02-01T10:46:33;94711.19;;;4.29;49.23
72308;BME280;60257;42.638;23.376;2023-02-01T10:49:02;94698.38;;;4.43;49.11
72308;BME280;60257;42.638;23.376;2023-02-01T10:51:45;94708.03;;;4.72;48.03
72308;BME280;60257;42.638;23.376;2023-02-01T10:54:18;94708.56;;;4.60;48.48
72308;BME280;60257;42.638;23.376;2023-02-01T10:56:46;94715.97;;;4.46;48.62
72308;BME280;60257;42.638;23.376;2023-02-01T10:59:24;94680.81;;;4.41;49.79
72308;BME280;60257;42.638;23.376;2023-02-01T11:01:58;94707.88;;;4.32;48.19
72308;BME280;60257;42.638;23.376;2023-02-01T11:04:24;94704.31;;;4.09;49.26
72308;BME280;60257;42.638;23.376;2023-02-01T11:07:16;94702.94;;;3.98;49.69
72308;BME280;60257;42.638;23.376;2023-02-01T11:09:51;94706.53;;;4.07;49.51
72308;BME280;60257;42.638;23.376;2023-02-01T11:12:33;94719.09;;;4.17;49.02
72308;BME280;60257;42.638;23.376;2023-02-01T11:17:46;94715.91;;;4.82;47.86
72308;BME280;60257;42.638;23.376;2023-02-01T11:20:20;94695.03;;;4.91;47.05
72308;BME280;60257;42.638;23.376;2023-02-01T11:22:54;94717.34;;;4.79;48.01
72308;BME280;60257;42.638;23.376;2023-02-01T11:25:21;94684.44;;;4.58;48.41
72308;BME280;60257;42.638;23.376;2023-02-01T11:27:49;94688.06;;;4.76;48.35
72308;BME280;60257;42.638;23.376;2023-02-01T11:30:37;94692.41;;;4.55;48.11
72308;BME280;60257;42.638;23.376;2023-02-01T11:33:05;94670.03;;;4.58;48.21
72308;BME280;60257;42.638;23.376;2023-02-01T11:35:36;94679.13;;;4.53;49.05
72308;BME280;60257;42.638;23.376;2023-02-01T11:38:11;94664.59;;;4.80;47.69
72308;BME280;60257;42.638;23.376;2023-02-01T11:40:39;94684.41;;;4.81;47.52
72308;BME280;60257;42.638;23.376;2023-02-01T11:43:15;94666.41;;;4.85;47.85
72308;BME280;60257;42.638;23.376;2023-02-01T11:45:54;94680.09;;;5.02;47.76
72308;BME280;60257;42.638;23.376;2023-02-01T11:48:19;94690.88;;;5.16;47.47
72308;BME280;60257;42.638;23.376;2023-02-01T11:58:57;94649.50;;;4.96;47.57
72308;BME280;60257;42.638;23.376;2023-02-01T12:07:56;94649.09;;;5.03;46.65
72308;BME280;60257;42.638;23.376;2023-02-01T12:16:06;94633.13;;;5.10;47.85
72308;BME280;60257;42.638;23.376;2023-02-01T12:40:28;94627.72;;;4.88;48.03
72308;BME280;60257;42.638;23.376;2023-02-01T12:50:55;94643.88;;;5.24;47.61
72308;BME280;60257;42.638;23.376;2023-02-01T12:53:44;94658.00;;;5.34;46.67
72308;BME280;60257;42.638;23.376;2023-02-01T12:56:16;94635.00;;;5.40;46.55
72308;BME280;60257;42.638;23.376;2023-02-01T12:58:49;94647.16;;;5.43;46.05
72308;BME280;60257;42.638;23.376;2023-02-01T13:01:22;94645.63;;;5.20;46.15
72308;BME280;60257;42.638;23.376;2023-02-01T13:04:05;94646.13;;;5.22;46.69
72308;BME280;60257;42.638;23.376;2023-02-01T13:06:58;94651.84;;;5.20;46.31
72308;BME280;60257;42.638;23.376;2023-02-01T13:12:10;94627.34;;;5.12;46.60
72308;BME280;60257;42.638;23.376;2023-02-01T13:14:46;94634.44;;;5.21;46.15
72308;BME280;60257;42.638;23.376;2023-02-01T13:17:17;94634.44;;;5.21;46.59
72308;BME280;60257;42.638;23.376;2023-02-01T13:19:50;94635.09;;;5.18;46.81
72308;BME280;60257;42.638;23.376;2023-02-01T13:22:29;94644.34;;;5.17;46.07
72308;BME280;60257;42.638;23.376;2023-02-01T13:25:01;94643.25;;;5.27;44.89
72308;BME280;60257;42.638;23.376;2023-02-01T13:27:29;94626.88;;;5.10;45.93
72308;BME280;60257;42.638;23.376;2023-02-01T13:30:10;94633.59;;;5.12;46.29
72308;BME280;60257;42.638;23.376;2023-02-01T13:33:11;94644.38;;;5.26;45.70
72308;BME280;60257;42.638;23.376;2023-02-01T13:39:02;94641.44;;;5.14;45.60
72308;BME280;60257;42.638;23.376;2023-02-01T13:41:38;94638.06;;;5.08;45.69
72308;BME280;60257;42.638;23.376;2023-02-01T13:44:17;94634.13;;;5.23;44.82
72308;BME280;60257;42.638;23.376;2023-02-01T13:46:47;94635.38;;;5.17;43.86
72308;BME280;60257;42.638;23.376;2023-02-01T13:49:27;94640.38;;;5.23;43.93
72308;BME280;60257;42.638;23.376;2023-02-01T13:51:58;94634.94;;;5.23;44.23
72308;BME280;60257;42.638;23.376;2023-02-01T13:54:33;94637.03;;;5.35;44.28
72308;BME280;60257;42.638;23.376;2023-02-01T13:57:01;94631.19;;;5.59;43.49
72308;BME280;60257;42.638;23.376;2023-02-01T14:05:12;94627.06;;;5.70;44.11
72308;BME280;60257;42.638;23.376;2023-02-01T14:13:27;94631.72;;;5.78;44.13
72308;BME280;60257;42.638;23.376;2023-02-01T14:16:14;94624.56;;;5.91;43.57
72308;BME280;60257;42.638;23.376;2023-02-01T14:21:33;94622.59;;;5.82;43.95
72308;BME280;60257;42.638;23.376;2023-02-01T14:26:49;94611.53;;;5.62;44.97
72308;BME280;60257;42.638;23.376;2023-02-01T14:34:29;94610.41;;;5.63;44.25
72308;BME280;60257;42.638;23.376;2023-02-01T14:37:04;94604.94;;;5.46;44.92
72308;BME280;60257;42.638;23.376;2023-02-01T14:44:50;94596.22;;;5.18;46.06
72308;BME280;60257;42.638;23.376;2023-02-01T14:52:47;94618.53;;;5.06;46.02
72308;BME280;60257;42.638;23.376;2023-02-01T14:55:26;94623.47;;;5.04;46.54
72308;BME280;60257;42.638;23.376;2023-02-01T14:57:55;94618.66;;;4.92;46.89
72308;BME280;60257;42.638;23.376;2023-02-01T15:00:25;94624.22;;;4.87;47.01
72308;BME280;60257;42.638;23.376;2023-02-01T15:02:53;94605.00;;;4.84;47.22
72308;BME280;60257;42.638;23.376;2023-02-01T15:05:29;94615.88;;;4.84;47.55
72308;BME280;60257;42.638;23.376;2023-02-01T15:07:58;94605.31;;;4.82;47.57
72308;BME280;60257;42.638;23.376;2023-02-01T15:10:26;94610.25;;;4.72;47.99
72308;BME280;60257;42.638;23.376;2023-02-01T15:12:53;94622.97;;;4.62;47.95
72308;BME280;60257;42.638;23.376;2023-02-01T15:15:21;94619.13;;;4.63;48.07
72308;BME280;60257;42.638;23.376;2023-02-01T15:17:51;94618.63;;;4.61;48.37
72308;BME280;60257;42.638;23.376;2023-02-01T15:23:01;94615.25;;;4.56;48.46
72308;BME280;60257;42.638;23.376;2023-02-01T15:25:32;94611.25;;;4.53;48.54
72308;BME280;60257;42.638;23.376;2023-02-01T15:27:59;94610.75;;;4.51;47.97
72308;BME280;60257;42.638;23.376;2023-02-01T15:30:27;94600.63;;;4.43;48.37
72308;BME280;60257;42.638;23.376;2023-02-01T15:35:42;94597.72;;;4.62;47.54
72308;BME280;60257;42.638;23.376;2023-02-01T15:46:30;94593.47;;;4.47;47.20
72308;BME280;60257;42.638;23.376;2023-02-01T15:48:56;94596.63;;;4.41;47.08